sensor_id;sensor_type;location;lat;lon;timestamp;P1;durP1;ratioP1;P2;durP2;ratioP2
10717;SDS011;13513;42.700;23.124;2023-04-24T00:01:03;4.53;;;4.10;;
10717;SDS011;13513;42.700;23.124;2023-04-24T00:03:34;8.10;;;4.77;;
10717;SDS011;13513;42.700;23.124;2023-04-24T00:06:05;5.87;;;4.57;;
10717;SDS011;13513;42.700;23.124;2023-04-24T00:08:36;7.20;;;5.80;;
10717;SDS011;13513;42.700;23.124;2023-04-24T00:11:10;6.97;;;5.80;;
10717;SDS011;13513;42.700;23.124;2023-04-24T00:13:40;6.58;;;5.92;;
10717;SDS011;13513;42.700;23.124;2023-04-24T00:16:11;11.17;;;5.60;;
10717;SDS011;13513;42.700;23.124;2023-04-24T00:18:41;8.20;;;4.77;;
10717;SDS011;13513;42.700;23.124;2023-04-24T00:21:13;9.50;;;5.73;;
10717;SDS011;13513;42.700;23.124;2023-04-24T00:23:43;9.47;;;6.33;;
10717;SDS011;13513;42.700;23.124;2023-04-24T00:26:14;34.03;;;14.47;;
10717;SDS011;13513;42.700;23.124;2023-04-24T00:28:45;8.97;;;7.20;;
10717;SDS011;13513;42.700;23.124;2023-04-24T00:31:16;6.53;;;5.37;;
10717;SDS011;13513;42.700;23.124;2023-04-24T00:33:48;8.93;;;6.50;;
10717;SDS011;13513;42.700;23.124;2023-04-24T00:36:19;5.17;;;4.63;;
10717;SDS011;13513;42.700;23.124;2023-04-24T00:38:50;7.63;;;4.47;;
10717;SDS011;13513;42.700;23.124;2023-04-24T00:41:21;6.22;;;3.83;;
10717;SDS011;13513;42.700;23.124;2023-04-24T00:43:52;6.43;;;4.90;;
10717;SDS011;13513;42.700;23.124;2023-04-24T00:46:23;11.70;;;4.63;;
10717;SDS011;13513;42.700;23.124;2023-04-24T00:48:54;6.83;;;4.00;;
10717;SDS011;13513;42.700;23.124;2023-04-24T00:51:27;7.87;;;4.67;;
10717;SDS011;13513;42.700;23.124;2023-04-24T00:53:58;7.93;;;5.77;;
10717;SDS011;13513;42.700;23.124;2023-04-24T00:56:29;4.17;;;3.73;;
10717;SDS011;13513;42.700;23.124;2023-04-24T00:59:06;7.73;;;4.93;;
10717;SDS011;13513;42.700;23.124;2023-04-24T01:01:37;7.13;;;5.13;;
10717;SDS011;13513;42.700;23.124;2023-04-24T01:04:09;6.73;;;5.00;;
10717;SDS011;13513;42.700;23.124;2023-04-24T01:06:41;9.33;;;4.77;;
10717;SDS011;13513;42.700;23.124;2023-04-24T01:09:13;6.37;;;4.80;;
10717;SDS011;13513;42.700;23.124;2023-04-24T01:11:44;8.13;;;5.00;;
10717;SDS011;13513;42.700;23.124;2023-04-24T01:14:15;5.60;;;5.00;;
10717;SDS011;13513;42.700;23.124;2023-04-24T01:16:46;4.73;;;3.93;;
10717;SDS011;13513;42.700;23.124;2023-04-24T01:19:16;10.10;;;4.90;;
10717;SDS011;13513;42.700;23.124;2023-04-24T01:21:47;8.20;;;4.80;;
10717;SDS011;13513;42.700;23.124;2023-04-24T01:24:20;5.43;;;4.67;;
10717;SDS011;13513;42.700;23.124;2023-04-24T01:26:51;7.07;;;4.90;;
10717;SDS011;13513;42.700;23.124;2023-04-24T01:29:22;11.13;;;4.43;;
10717;SDS011;13513;42.700;23.124;2023-04-24T01:31:54;6.40;;;4.57;;
10717;SDS011;13513;42.700;23.124;2023-04-24T01:34:25;8.03;;;4.27;;
10717;SDS011;13513;42.700;23.124;2023-04-24T01:36:56;10.67;;;4.70;;
10717;SDS011;13513;42.700;23.124;2023-04-24T01:39:27;5.47;;;4.73;;
10717;SDS011;13513;42.700;23.124;2023-04-24T01:41:57;4.70;;;3.73;;
10717;SDS011;13513;42.700;23.124;2023-04-24T01:44:28;7.13;;;4.37;;
10717;SDS011;13513;42.700;23.124;2023-04-24T01:46:59;5.23;;;4.73;;
10717;SDS011;13513;42.700;23.124;2023-04-24T01:49:30;5.80;;;4.17;;
10717;SDS011;13513;42.700;23.124;2023-04-24T01:52:02;7.30;;;4.53;;
10717;SDS011;13513;42.700;23.124;2023-04-24T01:54:33;4.97;;;4.20;;
10717;SDS011;13513;42.700;23.124;2023-04-24T01:57:04;5.17;;;4.03;;
10717;SDS011;13513;42.700;23.124;2023-04-24T01:59:36;4.95;;;4.28;;
10717;SDS011;13513;42.700;23.124;2023-04-24T02:02:06;5.90;;;4.30;;
10717;SDS011;13513;42.700;23.124;2023-04-24T02:04:37;12.03;;;4.95;;
10717;SDS011;13513;42.700;23.124;2023-04-24T02:07:08;6.17;;;4.67;;
10717;SDS011;13513;42.700;23.124;2023-04-24T02:09:45;4.97;;;4.30;;
10717;SDS011;13513;42.700;23.124;2023-04-24T02:12:15;7.97;;;4.65;;
10717;SDS011;13513;42.700;23.124;2023-04-24T02:14:44;5.87;;;4.50;;
10717;SDS011;13513;42.700;23.124;2023-04-24T02:17:14;8.13;;;4.10;;
10717;SDS011;13513;42.700;23.124;2023-04-24T02:19:45;4.72;;;4.20;;
10717;SDS011;13513;42.700;23.124;2023-04-24T02:22:17;6.60;;;4.63;;
10717;SDS011;13513;42.700;23.124;2023-04-24T02:24:47;9.63;;;5.30;;
10717;SDS011;13513;42.700;23.124;2023-04-24T02:27:17;6.43;;;5.27;;
10717;SDS011;13513;42.700;23.124;2023-04-24T02:29:48;6.00;;;5.30;;
10717;SDS011;13513;42.700;23.124;2023-04-24T02:32:22;8.50;;;5.90;;
10717;SDS011;13513;42.700;23.124;2023-04-24T02:34:54;8.50;;;5.53;;
10717;SDS011;13513;42.700;23.124;2023-04-24T02:37:25;8.30;;;6.20;;
10717;SDS011;13513;42.700;23.124;2023-04-24T02:39:55;5.83;;;4.83;;
10717;SDS011;13513;42.700;23.124;2023-04-24T02:42:27;7.93;;;6.17;;
10717;SDS011;13513;42.700;23.124;2023-04-24T02:44:59;10.33;;;6.57;;
10717;SDS011;13513;42.700;23.124;2023-04-24T02:47:29;8.00;;;6.50;;
10717;SDS011;13513;42.700;23.124;2023-04-24T02:50:01;8.97;;;6.47;;
10717;SDS011;13513;42.700;23.124;2023-04-24T02:52:32;8.90;;;6.67;;
10717;SDS011;13513;42.700;23.124;2023-04-24T02:55:02;8.03;;;6.50;;
10717;SDS011;13513;42.700;23.124;2023-04-24T02:57:33;9.93;;;6.80;;
10717;SDS011;13513;42.700;23.124;2023-04-24T03:00:05;8.63;;;6.40;;
10717;SDS011;13513;42.700;23.124;2023-04-24T03:02:39;10.30;;;6.50;;
10717;SDS011;13513;42.700;23.124;2023-04-24T03:05:10;7.13;;;6.43;;
10717;SDS011;13513;42.700;23.124;2023-04-24T03:07:40;9.87;;;7.13;;
10717;SDS011;13513;42.700;23.124;2023-04-24T03:10:14;10.23;;;6.27;;
10717;SDS011;13513;42.700;23.124;2023-04-24T03:12:45;8.17;;;6.53;;
10717;SDS011;13513;42.700;23.124;2023-04-24T03:15:16;11.60;;;6.57;;
10717;SDS011;13513;42.700;23.124;2023-04-24T03:17:49;7.43;;;6.33;;
10717;SDS011;13513;42.700;23.124;2023-04-24T03:20:20;6.20;;;5.60;;
10717;SDS011;13513;42.700;23.124;2023-04-24T03:22:51;9.10;;;6.47;;
10717;SDS011;13513;42.700;23.124;2023-04-24T03:25:22;10.10;;;6.73;;
10717;SDS011;13513;42.700;23.124;2023-04-24T03:27:52;11.70;;;7.77;;
10717;SDS011;13513;42.700;23.124;2023-04-24T03:30:23;7.77;;;6.10;;
10717;SDS011;13513;42.700;23.124;2023-04-24T03:32:52;9.53;;;6.70;;
10717;SDS011;13513;42.700;23.124;2023-04-24T03:35:23;9.27;;;6.50;;
10717;SDS011;13513;42.700;23.124;2023-04-24T03:37:54;7.63;;;5.57;;
10717;SDS011;13513;42.700;23.124;2023-04-24T03:40:24;10.47;;;6.40;;
10717;SDS011;13513;42.700;23.124;2023-04-24T03:42:55;7.60;;;5.60;;
10717;SDS011;13513;42.700;23.124;2023-04-24T03:45:26;9.37;;;6.03;;
10717;SDS011;13513;42.700;23.124;2023-04-24T03:47:59;8.33;;;5.50;;
10717;SDS011;13513;42.700;23.124;2023-04-24T03:50:29;5.40;;;4.90;;
10717;SDS011;13513;42.700;23.124;2023-04-24T03:53:00;7.10;;;4.70;;
10717;SDS011;13513;42.700;23.124;2023-04-24T03:55:31;7.73;;;4.80;;
10717;SDS011;13513;42.700;23.124;2023-04-24T03:58:02;5.10;;;4.60;;
10717;SDS011;13513;42.700;23.124;2023-04-24T04:00:33;4.63;;;4.13;;
10717;SDS011;13513;42.700;23.124;2023-04-24T04:03:04;4.23;;;3.80;;
10717;SDS011;13513;42.700;23.124;2023-04-24T04:05:35;6.67;;;5.03;;
10717;SDS011;13513;42.700;23.124;2023-04-24T04:08:07;7.07;;;4.77;;
10717;SDS011;13513;42.700;23.124;2023-04-24T04:10:38;5.75;;;4.42;;
10717;SDS011;13513;42.700;23.124;2023-04-24T04:13:09;6.97;;;4.77;;
10717;SDS011;13513;42.700;23.124;2023-04-24T04:15:40;9.17;;;5.40;;
10717;SDS011;13513;42.700;23.124;2023-04-24T04:18:11;6.97;;;5.17;;
10717;SDS011;13513;42.700;23.124;2023-04-24T04:20:43;5.50;;;4.93;;
10717;SDS011;13513;42.700;23.124;2023-04-24T04:23:13;8.60;;;5.13;;
10717;SDS011;13513;42.700;23.124;2023-04-24T04:25:44;9.60;;;5.30;;
10717;SDS011;13513;42.700;23.124;2023-04-24T04:28:16;10.70;;;5.47;;
10717;SDS011;13513;42.700;23.124;2023-04-24T04:30:47;7.70;;;3.27;;
10717;SDS011;13513;42.700;23.124;2023-04-24T04:33:18;8.13;;;5.33;;
10717;SDS011;13513;42.700;23.124;2023-04-24T04:35:50;6.43;;;5.13;;
10717;SDS011;13513;42.700;23.124;2023-04-24T04:38:21;12.97;;;5.53;;
10717;SDS011;13513;42.700;23.124;2023-04-24T04:40:51;9.33;;;5.63;;
10717;SDS011;13513;42.700;23.124;2023-04-24T04:43:22;8.93;;;5.25;;
10717;SDS011;13513;42.700;23.124;2023-04-24T04:45:55;8.23;;;5.27;;
10717;SDS011;13513;42.700;23.124;2023-04-24T04:48:27;9.57;;;5.40;;
10717;SDS011;13513;42.700;23.124;2023-04-24T04:50:58;12.33;;;6.10;;
10717;SDS011;13513;42.700;23.124;2023-04-24T04:53:29;8.40;;;5.33;;
10717;SDS011;13513;42.700;23.124;2023-04-24T04:55:59;8.07;;;4.93;;
10717;SDS011;13513;42.700;23.124;2023-04-24T04:58:30;15.50;;;5.47;;
10717;SDS011;13513;42.700;23.124;2023-04-24T05:01:01;12.00;;;5.57;;
10717;SDS011;13513;42.700;23.124;2023-04-24T05:03:32;8.37;;;4.33;;
10717;SDS011;13513;42.700;23.124;2023-04-24T05:06:02;10.30;;;5.30;;
10717;SDS011;13513;42.700;23.124;2023-04-24T05:08:33;9.87;;;5.37;;
10717;SDS011;13513;42.700;23.124;2023-04-24T05:11:04;10.60;;;5.40;;
10717;SDS011;13513;42.700;23.124;2023-04-24T05:13:35;7.77;;;5.37;;
10717;SDS011;13513;42.700;23.124;2023-04-24T05:16:06;6.60;;;5.40;;
10717;SDS011;13513;42.700;23.124;2023-04-24T05:18:37;7.87;;;5.67;;
10717;SDS011;13513;42.700;23.124;2023-04-24T05:21:08;7.67;;;5.53;;
10717;SDS011;13513;42.700;23.124;2023-04-24T05:23:39;8.90;;;5.07;;
10717;SDS011;13513;42.700;23.124;2023-04-24T05:26:10;7.67;;;5.10;;
10717;SDS011;13513;42.700;23.124;2023-04-24T05:28:44;7.53;;;4.90;;
10717;SDS011;13513;42.700;23.124;2023-04-24T05:31:14;7.37;;;6.08;;
10717;SDS011;13513;42.700;23.124;2023-04-24T05:33:45;8.10;;;5.35;;
10717;SDS011;13513;42.700;23.124;2023-04-24T05:36:16;7.95;;;4.85;;
10717;SDS011;13513;42.700;23.124;2023-04-24T05:38:47;8.93;;;5.30;;
10717;SDS011;13513;42.700;23.124;2023-04-24T05:41:18;10.45;;;5.20;;
10717;SDS011;13513;42.700;23.124;2023-04-24T05:43:49;10.93;;;5.42;;
10717;SDS011;13513;42.700;23.124;2023-04-24T05:46:19;11.83;;;4.70;;
10717;SDS011;13513;42.700;23.124;2023-04-24T05:48:50;8.00;;;4.67;;
10717;SDS011;13513;42.700;23.124;2023-04-24T05:51:21;7.22;;;4.67;;
10717;SDS011;13513;42.700;23.124;2023-04-24T05:53:52;9.70;;;5.47;;
10717;SDS011;13513;42.700;23.124;2023-04-24T05:56:22;9.60;;;4.92;;
10717;SDS011;13513;42.700;23.124;2023-04-24T05:58:52;12.35;;;5.47;;
10717;SDS011;13513;42.700;23.124;2023-04-24T06:01:23;8.13;;;5.40;;
10717;SDS011;13513;42.700;23.124;2023-04-24T06:03:54;9.83;;;5.10;;
10717;SDS011;13513;42.700;23.124;2023-04-24T06:06:25;8.78;;;4.92;;
10717;SDS011;13513;42.700;23.124;2023-04-24T06:08:56;7.90;;;4.55;;
10717;SDS011;13513;42.700;23.124;2023-04-24T06:11:26;7.55;;;5.12;;
10717;SDS011;13513;42.700;23.124;2023-04-24T06:13:57;9.15;;;5.25;;
10717;SDS011;13513;42.700;23.124;2023-04-24T06:16:29;8.83;;;5.50;;
10717;SDS011;13513;42.700;23.124;2023-04-24T06:19:00;9.75;;;4.70;;
10717;SDS011;13513;42.700;23.124;2023-04-24T06:21:30;8.83;;;4.92;;
10717;SDS011;13513;42.700;23.124;2023-04-24T06:24:01;12.95;;;7.78;;
10717;SDS011;13513;42.700;23.124;2023-04-24T06:26:32;7.85;;;6.60;;
10717;SDS011;13513;42.700;23.124;2023-04-24T06:29:03;8.15;;;4.33;;
10717;SDS011;13513;42.700;23.124;2023-04-24T06:31:37;8.85;;;5.10;;
10717;SDS011;13513;42.700;23.124;2023-04-24T06:34:08;8.08;;;5.40;;
10717;SDS011;13513;42.700;23.124;2023-04-24T06:36:39;8.08;;;4.92;;
10717;SDS011;13513;42.700;23.124;2023-04-24T06:39:10;8.63;;;4.30;;
10717;SDS011;13513;42.700;23.124;2023-04-24T06:41:41;5.83;;;4.03;;
10717;SDS011;13513;42.700;23.124;2023-04-24T06:44:12;7.33;;;4.28;;
10717;SDS011;13513;42.700;23.124;2023-04-24T06:46:42;7.03;;;4.30;;
10717;SDS011;13513;42.700;23.124;2023-04-24T06:49:15;5.90;;;4.28;;
10717;SDS011;13513;42.700;23.124;2023-04-24T06:51:46;5.37;;;3.98;;
10717;SDS011;13513;42.700;23.124;2023-04-24T06:54:17;10.35;;;4.90;;
10717;SDS011;13513;42.700;23.124;2023-04-24T06:56:48;9.90;;;4.10;;
10717;SDS011;13513;42.700;23.124;2023-04-24T06:59:19;10.70;;;4.10;;
10717;SDS011;13513;42.700;23.124;2023-04-24T07:01:50;5.37;;;3.77;;
10717;SDS011;13513;42.700;23.124;2023-04-24T07:04:20;5.85;;;3.80;;
10717;SDS011;13513;42.700;23.124;2023-04-24T07:06:50;10.20;;;4.08;;
10717;SDS011;13513;42.700;23.124;2023-04-24T07:09:22;6.00;;;3.98;;
10717;SDS011;13513;42.700;23.124;2023-04-24T07:11:52;5.10;;;3.70;;
10717;SDS011;13513;42.700;23.124;2023-04-24T07:14:23;8.15;;;4.10;;
10717;SDS011;13513;42.700;23.124;2023-04-24T07:16:54;5.85;;;3.80;;
10717;SDS011;13513;42.700;23.124;2023-04-24T07:19:25;6.08;;;3.70;;
10717;SDS011;13513;42.700;23.124;2023-04-24T07:21:56;8.55;;;4.20;;
10717;SDS011;13513;42.700;23.124;2023-04-24T07:24:27;10.48;;;3.85;;
10717;SDS011;13513;42.700;23.124;2023-04-24T07:26:58;6.37;;;4.17;;
10717;SDS011;13513;42.700;23.124;2023-04-24T07:29:29;3.33;;;3.02;;
10717;SDS011;13513;42.700;23.124;2023-04-24T07:32:00;5.45;;;3.40;;
10717;SDS011;13513;42.700;23.124;2023-04-24T07:34:32;4.92;;;3.60;;
10717;SDS011;13513;42.700;23.124;2023-04-24T07:37:03;5.72;;;3.37;;
10717;SDS011;13513;42.700;23.124;2023-04-24T07:39:33;6.50;;;3.40;;
10717;SDS011;13513;42.700;23.124;2023-04-24T07:42:04;6.10;;;3.40;;
10717;SDS011;13513;42.700;23.124;2023-04-24T07:44:35;8.18;;;3.62;;
10717;SDS011;13513;42.700;23.124;2023-04-24T07:47:06;6.37;;;3.62;;
10717;SDS011;13513;42.700;23.124;2023-04-24T07:49:37;5.85;;;3.60;;
10717;SDS011;13513;42.700;23.124;2023-04-24T07:52:08;7.00;;;4.10;;
10717;SDS011;13513;42.700;23.124;2023-04-24T07:54:38;5.17;;;3.50;;
10717;SDS011;13513;42.700;23.124;2023-04-24T07:57:09;7.62;;;4.10;;
10717;SDS011;13513;42.700;23.124;2023-04-24T07:59:40;10.18;;;4.10;;
10717;SDS011;13513;42.700;23.124;2023-04-24T08:02:09;4.90;;;3.80;;
10717;SDS011;13513;42.700;23.124;2023-04-24T08:04:40;4.25;;;3.42;;
10717;SDS011;13513;42.700;23.124;2023-04-24T08:07:11;7.22;;;3.87;;
10717;SDS011;13513;42.700;23.124;2023-04-24T08:09:42;9.70;;;3.72;;
10717;SDS011;13513;42.700;23.124;2023-04-24T08:12:13;6.28;;;3.70;;
10717;SDS011;13513;42.700;23.124;2023-04-24T08:14:43;8.60;;;3.50;;
10717;SDS011;13513;42.700;23.124;2023-04-24T08:17:13;10.08;;;3.55;;
10717;SDS011;13513;42.700;23.124;2023-04-24T08:19:47;5.97;;;3.45;;
10717;SDS011;13513;42.700;23.124;2023-04-24T08:22:20;5.30;;;3.47;;
10717;SDS011;13513;42.700;23.124;2023-04-24T08:24:51;3.20;;;2.90;;
10717;SDS011;13513;42.700;23.124;2023-04-24T08:27:22;7.00;;;3.70;;
10717;SDS011;13513;42.700;23.124;2023-04-24T08:29:52;7.95;;;3.10;;
10717;SDS011;13513;42.700;23.124;2023-04-24T08:32:24;8.13;;;3.90;;
10717;SDS011;13513;42.700;23.124;2023-04-24T08:34:58;5.80;;;3.58;;
10717;SDS011;13513;42.700;23.124;2023-04-24T08:37:28;7.47;;;3.67;;
10717;SDS011;13513;42.700;23.124;2023-04-24T08:39:59;5.95;;;3.50;;
10717;SDS011;13513;42.700;23.124;2023-04-24T08:42:31;7.15;;;3.55;;
10717;SDS011;13513;42.700;23.124;2023-04-24T08:45:03;6.35;;;3.87;;
10717;SDS011;13513;42.700;23.124;2023-04-24T08:47:35;6.90;;;3.15;;
10717;SDS011;13513;42.700;23.124;2023-04-24T08:50:07;4.87;;;3.22;;
10717;SDS011;13513;42.700;23.124;2023-04-24T08:52:38;6.58;;;3.52;;
10717;SDS011;13513;42.700;23.124;2023-04-24T08:55:11;6.22;;;3.00;;
10717;SDS011;13513;42.700;23.124;2023-04-24T08:57:41;9.33;;;3.22;;
10717;SDS011;13513;42.700;23.124;2023-04-24T09:00:13;3.50;;;2.62;;
10717;SDS011;13513;42.700;23.124;2023-04-24T09:02:44;10.55;;;3.40;;
10717;SDS011;13513;42.700;23.124;2023-04-24T09:05:17;6.70;;;3.08;;
10717;SDS011;13513;42.700;23.124;2023-04-24T09:07:54;5.40;;;3.15;;
10717;SDS011;13513;42.700;23.124;2023-04-24T09:10:26;6.40;;;2.98;;
10717;SDS011;13513;42.700;23.124;2023-04-24T09:12:57;4.35;;;2.80;;
10717;SDS011;13513;42.700;23.124;2023-04-24T09:15:29;4.87;;;2.80;;
10717;SDS011;13513;42.700;23.124;2023-04-24T09:18:00;6.35;;;2.80;;
10717;SDS011;13513;42.700;23.124;2023-04-24T09:20:31;9.85;;;3.15;;
10717;SDS011;13513;42.700;23.124;2023-04-24T09:23:02;4.60;;;2.90;;
10717;SDS011;13513;42.700;23.124;2023-04-24T09:25:34;7.72;;;2.72;;
10717;SDS011;13513;42.700;23.124;2023-04-24T09:28:05;4.37;;;2.92;;
10717;SDS011;13513;42.700;23.124;2023-04-24T09:30:36;7.35;;;2.72;;
10717;SDS011;13513;42.700;23.124;2023-04-24T09:33:13;4.92;;;2.83;;
10717;SDS011;13513;42.700;23.124;2023-04-24T09:35:51;4.58;;;2.58;;
10717;SDS011;13513;42.700;23.124;2023-04-24T09:38:42;4.05;;;2.72;;
10717;SDS011;13513;42.700;23.124;2023-04-24T09:41:07;5.62;;;2.50;;
10717;SDS011;13513;42.700;23.124;2023-04-24T09:43:38;4.35;;;2.40;;
10717;SDS011;13513;42.700;23.124;2023-04-24T09:46:09;3.67;;;2.33;;
10717;SDS011;13513;42.700;23.124;2023-04-24T09:48:40;5.83;;;2.40;;
10717;SDS011;13513;42.700;23.124;2023-04-24T09:51:11;5.55;;;2.65;;
10717;SDS011;13513;42.700;23.124;2023-04-24T09:53:46;4.55;;;2.55;;
10717;SDS011;13513;42.700;23.124;2023-04-24T09:56:17;2.98;;;2.30;;
10717;SDS011;13513;42.700;23.124;2023-04-24T09:58:47;2.95;;;2.60;;
10717;SDS011;13513;42.700;23.124;2023-04-24T10:01:40;4.30;;;2.62;;
10717;SDS011;13513;42.700;23.124;2023-04-24T10:03:59;5.97;;;3.00;;
10717;SDS011;13513;42.700;23.124;2023-04-24T10:06:35;5.30;;;2.37;;
10717;SDS011;13513;42.700;23.124;2023-04-24T10:09:07;2.83;;;2.55;;
10717;SDS011;13513;42.700;23.124;2023-04-24T10:11:39;3.95;;;3.05;;
10717;SDS011;13513;42.700;23.124;2023-04-24T10:14:17;3.85;;;2.70;;
10717;SDS011;13513;42.700;23.124;2023-04-24T10:16:50;4.20;;;2.70;;
10717;SDS011;13513;42.700;23.124;2023-04-24T10:19:25;4.97;;;2.90;;
10717;SDS011;13513;42.700;23.124;2023-04-24T10:21:55;3.95;;;2.42;;
10717;SDS011;13513;42.700;23.124;2023-04-24T10:24:27;6.90;;;2.70;;
10717;SDS011;13513;42.700;23.124;2023-04-24T10:26:58;8.43;;;7.53;;
10717;SDS011;13513;42.700;23.124;2023-04-24T10:29:28;7.47;;;2.60;;
10717;SDS011;13513;42.700;23.124;2023-04-24T10:32:01;4.17;;;2.35;;
10717;SDS011;13513;42.700;23.124;2023-04-24T10:34:32;7.25;;;3.10;;
10717;SDS011;13513;42.700;23.124;2023-04-24T10:37:03;5.28;;;3.02;;
10717;SDS011;13513;42.700;23.124;2023-04-24T10:39:36;2.85;;;2.62;;
10717;SDS011;13513;42.700;23.124;2023-04-24T10:42:16;4.03;;;2.65;;
10717;SDS011;13513;42.700;23.124;2023-04-24T10:44:49;3.52;;;2.70;;
10717;SDS011;13513;42.700;23.124;2023-04-24T10:47:20;5.80;;;2.58;;
10717;SDS011;13513;42.700;23.124;2023-04-24T10:49:51;6.72;;;3.22;;
10717;SDS011;13513;42.700;23.124;2023-04-24T10:52:21;3.45;;;2.85;;
10717;SDS011;13513;42.700;23.124;2023-04-24T10:54:53;3.98;;;2.60;;
10717;SDS011;13513;42.700;23.124;2023-04-24T10:57:27;5.33;;;2.70;;
10717;SDS011;13513;42.700;23.124;2023-04-24T11:00:13;2.72;;;2.52;;
10717;SDS011;13513;42.700;23.124;2023-04-24T11:02:42;4.83;;;2.98;;
10717;SDS011;13513;42.700;23.124;2023-04-24T11:05:18;3.40;;;3.10;;
10717;SDS011;13513;42.700;23.124;2023-04-24T11:10:47;3.37;;;3.08;;
10717;SDS011;13513;42.700;23.124;2023-04-24T11:13:25;3.25;;;2.95;;
10717;SDS011;13513;42.700;23.124;2023-04-24T11:16:13;3.40;;;2.70;;
10717;SDS011;13513;42.700;23.124;2023-04-24T11:18:44;4.08;;;2.62;;
10717;SDS011;13513;42.700;23.124;2023-04-24T11:21:18;3.33;;;3.00;;
10717;SDS011;13513;42.700;23.124;2023-04-24T11:23:49;4.95;;;2.92;;
10717;SDS011;13513;42.700;23.124;2023-04-24T11:26:23;3.25;;;2.80;;
10717;SDS011;13513;42.700;23.124;2023-04-24T11:28:53;6.60;;;3.30;;
10717;SDS011;13513;42.700;23.124;2023-04-24T11:31:39;3.80;;;3.20;;
10717;SDS011;13513;42.700;23.124;2023-04-24T11:34:13;5.50;;;3.40;;
10717;SDS011;13513;42.700;23.124;2023-04-24T11:36:42;4.65;;;3.08;;
10717;SDS011;13513;42.700;23.124;2023-04-24T11:39:17;4.90;;;3.08;;
10717;SDS011;13513;42.700;23.124;2023-04-24T11:41:47;5.30;;;3.70;;
10717;SDS011;13513;42.700;23.124;2023-04-24T11:44:19;3.92;;;3.20;;
10717;SDS011;13513;42.700;23.124;2023-04-24T11:46:51;4.90;;;3.33;;
10717;SDS011;13513;42.700;23.124;2023-04-24T11:49:22;3.55;;;3.10;;
10717;SDS011;13513;42.700;23.124;2023-04-24T11:51:57;4.70;;;3.15;;
10717;SDS011;13513;42.700;23.124;2023-04-24T11:54:28;4.35;;;3.08;;
10717;SDS011;13513;42.700;23.124;2023-04-24T11:56:58;4.03;;;3.27;;
10717;SDS011;13513;42.700;23.124;2023-04-24T11:59:29;4.20;;;3.02;;
10717;SDS011;13513;42.700;23.124;2023-04-24T12:02:04;3.83;;;3.05;;
10717;SDS011;13513;42.700;23.124;2023-04-24T12:04:40;5.60;;;3.05;;
10717;SDS011;13513;42.700;23.124;2023-04-24T12:07:10;3.62;;;3.17;;
10717;SDS011;13513;42.700;23.124;2023-04-24T12:09:41;4.62;;;3.00;;
10717;SDS011;13513;42.700;23.124;2023-04-24T12:12:14;3.00;;;2.70;;
10717;SDS011;13513;42.700;23.124;2023-04-24T12:14:49;3.00;;;2.77;;
10717;SDS011;13513;42.700;23.124;2023-04-24T12:17:30;3.17;;;2.75;;
10717;SDS011;13513;42.700;23.124;2023-04-24T12:20:01;2.98;;;2.77;;
10717;SDS011;13513;42.700;23.124;2023-04-24T12:25:28;4.70;;;3.02;;
10717;SDS011;13513;42.700;23.124;2023-04-24T12:30:42;3.65;;;3.10;;
10717;SDS011;13513;42.700;23.124;2023-04-24T12:33:20;4.08;;;2.80;;
10717;SDS011;13513;42.700;23.124;2023-04-24T12:35:55;3.40;;;3.10;;
10717;SDS011;13513;42.700;23.124;2023-04-24T12:38:28;7.08;;;2.98;;
10717;SDS011;13513;42.700;23.124;2023-04-24T12:41:04;3.30;;;3.00;;
10717;SDS011;13513;42.700;23.124;2023-04-24T12:43:37;3.35;;;3.05;;
10717;SDS011;13513;42.700;23.124;2023-04-24T12:46:09;4.10;;;3.55;;
10717;SDS011;13513;42.700;23.124;2023-04-24T12:48:40;4.97;;;3.35;;
10717;SDS011;13513;42.700;23.124;2023-04-24T12:51:11;6.00;;;3.35;;
10717;SDS011;13513;42.700;23.124;2023-04-24T12:53:41;3.75;;;3.10;;
10717;SDS011;13513;42.700;23.124;2023-04-24T12:56:13;4.33;;;3.33;;
10717;SDS011;13513;42.700;23.124;2023-04-24T12:58:44;8.95;;;3.65;;
10717;SDS011;13513;42.700;23.124;2023-04-24T13:01:15;4.10;;;3.10;;
10717;SDS011;13513;42.700;23.124;2023-04-24T13:03:46;4.20;;;3.80;;
10717;SDS011;13513;42.700;23.124;2023-04-24T13:06:17;18.20;;;14.13;;
10717;SDS011;13513;42.700;23.124;2023-04-24T13:08:47;6.05;;;3.55;;
10717;SDS011;13513;42.700;23.124;2023-04-24T13:11:18;3.60;;;3.30;;
10717;SDS011;13513;42.700;23.124;2023-04-24T13:13:50;4.37;;;3.20;;
10717;SDS011;13513;42.700;23.124;2023-04-24T13:16:20;8.35;;;3.25;;
10717;SDS011;13513;42.700;23.124;2023-04-24T13:18:51;3.85;;;3.30;;
10717;SDS011;13513;42.700;23.124;2023-04-24T13:21:22;4.03;;;3.25;;
10717;SDS011;13513;42.700;23.124;2023-04-24T13:23:53;3.83;;;2.55;;
10717;SDS011;13513;42.700;23.124;2023-04-24T13:26:25;3.90;;;2.90;;
10717;SDS011;13513;42.700;23.124;2023-04-24T13:28:55;8.75;;;3.17;;
10717;SDS011;13513;42.700;23.124;2023-04-24T13:31:26;3.33;;;2.95;;
10717;SDS011;13513;42.700;23.124;2023-04-24T13:33:58;3.40;;;2.80;;
10717;SDS011;13513;42.700;23.124;2023-04-24T13:36:29;4.95;;;3.00;;
10717;SDS011;13513;42.700;23.124;2023-04-24T13:38:59;3.80;;;3.40;;
10717;SDS011;13513;42.700;23.124;2023-04-24T13:41:32;4.22;;;3.17;;
10717;SDS011;13513;42.700;23.124;2023-04-24T13:44:02;4.40;;;2.98;;
10717;SDS011;13513;42.700;23.124;2023-04-24T13:46:34;2.95;;;2.55;;
10717;SDS011;13513;42.700;23.124;2023-04-24T13:49:04;4.58;;;3.05;;
10717;SDS011;13513;42.700;23.124;2023-04-24T13:51:34;6.65;;;3.10;;
10717;SDS011;13513;42.700;23.124;2023-04-24T13:54:05;5.10;;;2.95;;
10717;SDS011;13513;42.700;23.124;2023-04-24T13:56:42;3.58;;;2.85;;
10717;SDS011;13513;42.700;23.124;2023-04-24T13:59:12;5.45;;;2.77;;
10717;SDS011;13513;42.700;23.124;2023-04-24T14:01:43;4.53;;;2.80;;
10717;SDS011;13513;42.700;23.124;2023-04-24T14:04:15;3.45;;;2.72;;
10717;SDS011;13513;42.700;23.124;2023-04-24T14:06:44;3.75;;;3.10;;
10717;SDS011;13513;42.700;23.124;2023-04-24T14:09:15;4.78;;;2.65;;
10717;SDS011;13513;42.700;23.124;2023-04-24T14:11:46;5.08;;;3.08;;
10717;SDS011;13513;42.700;23.124;2023-04-24T14:14:16;7.08;;;3.05;;
10717;SDS011;13513;42.700;23.124;2023-04-24T14:16:47;4.15;;;3.00;;
10717;SDS011;13513;42.700;23.124;2023-04-24T14:19:18;5.45;;;2.92;;
10717;SDS011;13513;42.700;23.124;2023-04-24T14:21:49;2.90;;;2.30;;
10717;SDS011;13513;42.700;23.124;2023-04-24T14:24:19;2.60;;;2.40;;
10717;SDS011;13513;42.700;23.124;2023-04-24T14:26:50;3.40;;;2.70;;
10717;SDS011;13513;42.700;23.124;2023-04-24T14:29:21;4.58;;;3.05;;
10717;SDS011;13513;42.700;23.124;2023-04-24T14:31:53;4.47;;;3.35;;
10717;SDS011;13513;42.700;23.124;2023-04-24T14:34:24;6.12;;;3.08;;
10717;SDS011;13513;42.700;23.124;2023-04-24T14:36:55;8.28;;;3.40;;
10717;SDS011;13513;42.700;23.124;2023-04-24T14:39:29;5.95;;;3.10;;
10717;SDS011;13513;42.700;23.124;2023-04-24T14:42:00;4.78;;;3.12;;
10717;SDS011;13513;42.700;23.124;2023-04-24T14:44:30;4.90;;;2.80;;
10717;SDS011;13513;42.700;23.124;2023-04-24T14:47:01;4.80;;;2.90;;
10717;SDS011;13513;42.700;23.124;2023-04-24T14:49:32;3.50;;;3.00;;
10717;SDS011;13513;42.700;23.124;2023-04-24T14:52:03;4.22;;;3.30;;
10717;SDS011;13513;42.700;23.124;2023-04-24T14:54:34;7.87;;;3.30;;
10717;SDS011;13513;42.700;23.124;2023-04-24T14:57:05;4.03;;;2.90;;
10717;SDS011;13513;42.700;23.124;2023-04-24T14:59:35;13.93;;;4.78;;
10717;SDS011;13513;42.700;23.124;2023-04-24T15:02:06;7.42;;;3.47;;
10717;SDS011;13513;42.700;23.124;2023-04-24T15:04:37;6.47;;;4.10;;
10717;SDS011;13513;42.700;23.124;2023-04-24T15:07:08;6.45;;;4.17;;